Hlavní strana
METAR-TAF:

METAR-TAF

Letiště :

Bennettsville, Jižní Karolína, Spojené státy americké

zeměpisná šířka: 34-37-18N, zeměpisná délka: 079-44-04W, výška: 45 m

Aktuální stav počasí

Zpráva byla vytvořena před 11 minutami, v 18:15 UTC
Západoseverozápadní vítr 8 kt s nárazy do 17 kt
Teplota 10°C
Vlhkost vzduchu 34%
Tlak 1017 hPa
Viditelnost: 16.1 km
Jasno

METAR: KBBP 271815Z AUTO 30008G17KT 10SM CLR 10/M05 A3003 RMK AO2

Čas: 13:26 (18:26 UTC)


TAF: chybějící

Stav a předpovědi počasí z více než 4 000 letišť (zprávy METAR a TAF).

Červené a žluté tečky na mapě představují dostupné meteorologické stanice.

Když kurzor umístíte na tečku, zobrazí se název stanice.

Pak kliknutím zobrazíte stav a předpověď počasí.

Chcete-li změnit mapu, kliknutím na zelené tlačítko se znaménkem +mapu přiblížíte, kliknutím na zelené tlačítko se znaménkem – mapu oddálíte a kliknutím na zelené šipky přejdete na sousední mapy.


METAR-TAF: